sensor_id;sensor_type;location;lat;lon;timestamp;P1;durP1;ratioP1;P2;durP2;ratioP2
68377;SDS011;55322;48.146;11.516;2023-02-15T00:01:26;72.25;;;19.63;;
68377;SDS011;55322;48.146;11.516;2023-02-15T00:03:51;82.78;;;20.00;;
68377;SDS011;55322;48.146;11.516;2023-02-15T00:06:17;141.80;;;20.70;;
68377;SDS011;55322;48.146;11.516;2023-02-15T00:08:43;92.15;;;20.23;;
68377;SDS011;55322;48.146;11.516;2023-02-15T00:13:33;46.40;;;18.57;;
68377;SDS011;55322;48.146;11.516;2023-02-15T00:16:02;102.45;;;21.58;;
68377;SDS011;55322;48.146;11.516;2023-02-15T00:18:28;140.27;;;17.63;;
68377;SDS011;55322;48.146;11.516;2023-02-15T00:20:54;96.50;;;18.42;;
68377;SDS011;55322;48.146;11.516;2023-02-15T00:23:19;80.70;;;16.83;;
68377;SDS011;55322;48.146;11.516;2023-02-15T00:25:44;119.27;;;20.30;;
68377;SDS011;55322;48.146;11.516;2023-02-15T00:28:10;77.63;;;18.33;;
68377;SDS011;55322;48.146;11.516;2023-02-15T00:30:35;84.28;;;20.05;;
68377;SDS011;55322;48.146;11.516;2023-02-15T00:33:00;144.37;;;21.27;;
68377;SDS011;55322;48.146;11.516;2023-02-15T00:35:25;122.13;;;19.50;;
68377;SDS011;55322;48.146;11.516;2023-02-15T00:37:51;205.73;;;22.90;;
68377;SDS011;55322;48.146;11.516;2023-02-15T00:40:17;162.30;;;19.75;;
68377;SDS011;55322;48.146;11.516;2023-02-15T00:42:42;108.57;;;19.97;;
68377;SDS011;55322;48.146;11.516;2023-02-15T00:45:08;131.03;;;20.77;;
68377;SDS011;55322;48.146;11.516;2023-02-15T00:47:34;115.85;;;19.63;;
68377;SDS011;55322;48.146;11.516;2023-02-15T00:49:59;88.10;;;19.10;;
68377;SDS011;55322;48.146;11.516;2023-02-15T00:52:24;56.93;;;18.60;;
68377;SDS011;55322;48.146;11.516;2023-02-15T00:54:49;141.63;;;19.30;;
68377;SDS011;55322;48.146;11.516;2023-02-15T00:57:15;50.33;;;17.63;;
68377;SDS011;55322;48.146;11.516;2023-02-15T00:59:40;64.50;;;16.67;;
68377;SDS011;55322;48.146;11.516;2023-02-15T01:02:05;66.47;;;18.97;;
68377;SDS011;55322;48.146;11.516;2023-02-15T01:04:31;86.17;;;16.47;;
68377;SDS011;55322;48.146;11.516;2023-02-15T01:06:56;92.68;;;17.88;;
68377;SDS011;55322;48.146;11.516;2023-02-15T01:09:21;52.78;;;15.95;;
68377;SDS011;55322;48.146;11.516;2023-02-15T01:11:47;46.70;;;15.30;;
68377;SDS011;55322;48.146;11.516;2023-02-15T01:14:12;35.40;;;15.27;;
68377;SDS011;55322;48.146;11.516;2023-02-15T01:16:38;43.80;;;16.23;;
68377;SDS011;55322;48.146;11.516;2023-02-15T01:19:03;45.25;;;16.10;;
68377;SDS011;55322;48.146;11.516;2023-02-15T01:21:29;101.40;;;17.50;;
68377;SDS011;55322;48.146;11.516;2023-02-15T01:23:54;115.20;;;15.67;;
68377;SDS011;55322;48.146;11.516;2023-02-15T01:26:20;67.87;;;14.40;;
68377;SDS011;55322;48.146;11.516;2023-02-15T01:28:45;60.72;;;15.73;;
68377;SDS011;55322;48.146;11.516;2023-02-15T01:31:12;55.65;;;14.40;;
68377;SDS011;55322;48.146;11.516;2023-02-15T01:33:39;60.42;;;15.27;;
68377;SDS011;55322;48.146;11.516;2023-02-15T01:36:05;37.67;;;15.67;;
68377;SDS011;55322;48.146;11.516;2023-02-15T01:38:31;32.08;;;14.93;;
68377;SDS011;55322;48.146;11.516;2023-02-15T01:40:57;39.38;;;13.43;;
68377;SDS011;55322;48.146;11.516;2023-02-15T01:43:43;39.03;;;14.27;;
68377;SDS011;55322;48.146;11.516;2023-02-15T01:46:10;49.63;;;16.48;;
68377;SDS011;55322;48.146;11.516;2023-02-15T01:48:38;36.15;;;14.90;;
68377;SDS011;55322;48.146;11.516;2023-02-15T01:51:08;36.40;;;15.73;;
68377;SDS011;55322;48.146;11.516;2023-02-15T01:53:34;62.07;;;16.83;;
68377;SDS011;55322;48.146;11.516;2023-02-15T01:56:09;48.95;;;16.50;;
68377;SDS011;55322;48.146;11.516;2023-02-15T01:58:47;33.08;;;14.70;;
68377;SDS011;55322;48.146;11.516;2023-02-15T02:01:14;34.95;;;15.55;;
68377;SDS011;55322;48.146;11.516;2023-02-15T02:04:15;36.07;;;15.60;;
68377;SDS011;55322;48.146;11.516;2023-02-15T02:06:32;34.25;;;15.07;;
68377;SDS011;55322;48.146;11.516;2023-02-15T02:08:58;32.42;;;15.18;;
68377;SDS011;55322;48.146;11.516;2023-02-15T02:11:24;37.90;;;14.23;;
68377;SDS011;55322;48.146;11.516;2023-02-15T02:13:50;30.88;;;14.77;;
68377;SDS011;55322;48.146;11.516;2023-02-15T02:24:35;156.05;;;17.85;;
68377;SDS011;55322;48.146;11.516;2023-02-15T02:33:02;39.53;;;13.50;;
68377;SDS011;55322;48.146;11.516;2023-02-15T02:35:56;54.78;;;14.07;;
68377;SDS011;55322;48.146;11.516;2023-02-15T02:38:33;38.25;;;14.48;;
68377;SDS011;55322;48.146;11.516;2023-02-15T02:46:40;35.10;;;14.27;;
68377;SDS011;55322;48.146;11.516;2023-02-15T02:49:13;36.45;;;14.63;;
68377;SDS011;55322;48.146;11.516;2023-02-15T02:51:38;49.87;;;15.87;;
68377;SDS011;55322;48.146;11.516;2023-02-15T02:54:04;48.80;;;15.63;;
68377;SDS011;55322;48.146;11.516;2023-02-15T02:56:39;56.95;;;14.00;;
68377;SDS011;55322;48.146;11.516;2023-02-15T02:59:24;53.97;;;14.82;;
68377;SDS011;55322;48.146;11.516;2023-02-15T03:02:06;48.83;;;14.98;;
68377;SDS011;55322;48.146;11.516;2023-02-15T03:04:45;48.30;;;15.25;;
68377;SDS011;55322;48.146;11.516;2023-02-15T03:07:18;55.87;;;15.00;;
68377;SDS011;55322;48.146;11.516;2023-02-15T03:09:54;52.53;;;14.77;;
68377;SDS011;55322;48.146;11.516;2023-02-15T03:15:03;54.15;;;15.05;;
68377;SDS011;55322;48.146;11.516;2023-02-15T03:17:32;39.75;;;16.48;;
68377;SDS011;55322;48.146;11.516;2023-02-15T03:20:08;78.50;;;16.57;;
68377;SDS011;55322;48.146;11.516;2023-02-15T03:23:04;53.92;;;14.93;;
68377;SDS011;55322;48.146;11.516;2023-02-15T03:25:37;35.30;;;14.30;;
68377;SDS011;55322;48.146;11.516;2023-02-15T03:28:09;48.60;;;14.90;;
68377;SDS011;55322;48.146;11.516;2023-02-15T03:30:38;45.60;;;14.95;;
68377;SDS011;55322;48.146;11.516;2023-02-15T03:33:05;37.37;;;15.23;;
68377;SDS011;55322;48.146;11.516;2023-02-15T03:35:52;64.00;;;15.35;;
68377;SDS011;55322;48.146;11.516;2023-02-15T03:38:29;38.75;;;15.23;;
68377;SDS011;55322;48.146;11.516;2023-02-15T03:41:01;38.58;;;14.65;;
68377;SDS011;55322;48.146;11.516;2023-02-15T03:46:31;60.53;;;14.90;;
68377;SDS011;55322;48.146;11.516;2023-02-15T03:49:04;95.63;;;15.70;;
68377;SDS011;55322;48.146;11.516;2023-02-15T03:51:35;81.43;;;14.98;;
68377;SDS011;55322;48.146;11.516;2023-02-15T03:54:09;80.57;;;15.00;;
68377;SDS011;55322;48.146;11.516;2023-02-15T03:56:38;81.20;;;14.68;;
68377;SDS011;55322;48.146;11.516;2023-02-15T03:59:06;105.33;;;16.87;;
68377;SDS011;55322;48.146;11.516;2023-02-15T04:02:04;61.35;;;15.00;;
68377;SDS011;55322;48.146;11.516;2023-02-15T04:04:41;68.93;;;15.45;;
68377;SDS011;55322;48.146;11.516;2023-02-15T04:07:10;36.65;;;15.55;;
68377;SDS011;55322;48.146;11.516;2023-02-15T04:09:36;64.97;;;16.05;;
68377;SDS011;55322;48.146;11.516;2023-02-15T04:12:20;72.07;;;16.03;;
68377;SDS011;55322;48.146;11.516;2023-02-15T04:14:46;75.47;;;15.85;;
68377;SDS011;55322;48.146;11.516;2023-02-15T04:17:30;91.50;;;15.20;;
68377;SDS011;55322;48.146;11.516;2023-02-15T04:19:55;45.17;;;14.20;;
68377;SDS011;55322;48.146;11.516;2023-02-15T04:22:39;72.23;;;14.87;;
68377;SDS011;55322;48.146;11.516;2023-02-15T04:25:23;72.57;;;15.85;;
68377;SDS011;55322;48.146;11.516;2023-02-15T04:27:50;58.03;;;14.63;;
68377;SDS011;55322;48.146;11.516;2023-02-15T04:30:18;67.95;;;15.77;;
68377;SDS011;55322;48.146;11.516;2023-02-15T04:32:49;60.03;;;14.80;;
68377;SDS011;55322;48.146;11.516;2023-02-15T04:35:15;97.10;;;16.27;;
68377;SDS011;55322;48.146;11.516;2023-02-15T04:37:41;68.05;;;16.10;;
68377;SDS011;55322;48.146;11.516;2023-02-15T04:40:07;106.22;;;16.95;;
68377;SDS011;55322;48.146;11.516;2023-02-15T04:42:37;65.68;;;15.93;;
68377;SDS011;55322;48.146;11.516;2023-02-15T04:45:03;83.63;;;15.30;;
68377;SDS011;55322;48.146;11.516;2023-02-15T04:47:29;46.30;;;15.47;;
68377;SDS011;55322;48.146;11.516;2023-02-15T04:49:54;59.28;;;17.08;;
68377;SDS011;55322;48.146;11.516;2023-02-15T04:52:20;41.50;;;15.90;;
68377;SDS011;55322;48.146;11.516;2023-02-15T04:54:45;48.23;;;18.20;;
68377;SDS011;55322;48.146;11.516;2023-02-15T04:57:12;50.70;;;16.90;;
68377;SDS011;55322;48.146;11.516;2023-02-15T04:59:37;59.10;;;16.73;;
68377;SDS011;55322;48.146;11.516;2023-02-15T05:02:03;52.50;;;17.67;;
68377;SDS011;55322;48.146;11.516;2023-02-15T05:04:28;49.90;;;15.77;;
68377;SDS011;55322;48.146;11.516;2023-02-15T05:06:54;34.30;;;15.63;;
68377;SDS011;55322;48.146;11.516;2023-02-15T05:09:19;54.30;;;15.87;;
68377;SDS011;55322;48.146;11.516;2023-02-15T05:11:45;41.57;;;15.73;;
68377;SDS011;55322;48.146;11.516;2023-02-15T05:14:10;51.97;;;15.20;;
68377;SDS011;55322;48.146;11.516;2023-02-15T05:16:35;51.50;;;15.52;;
68377;SDS011;55322;48.146;11.516;2023-02-15T05:19:01;66.10;;;15.98;;
68377;SDS011;55322;48.146;11.516;2023-02-15T05:21:26;38.73;;;15.10;;
68377;SDS011;55322;48.146;11.516;2023-02-15T05:23:52;59.30;;;15.57;;
68377;SDS011;55322;48.146;11.516;2023-02-15T05:26:19;38.47;;;14.32;;
68377;SDS011;55322;48.146;11.516;2023-02-15T05:29:04;44.27;;;14.87;;
68377;SDS011;55322;48.146;11.516;2023-02-15T05:31:30;41.83;;;14.63;;
68377;SDS011;55322;48.146;11.516;2023-02-15T05:33:56;38.00;;;14.20;;
68377;SDS011;55322;48.146;11.516;2023-02-15T05:36:21;39.40;;;13.97;;
68377;SDS011;55322;48.146;11.516;2023-02-15T05:38:46;37.07;;;12.47;;
68377;SDS011;55322;48.146;11.516;2023-02-15T05:41:11;37.90;;;12.73;;
68377;SDS011;55322;48.146;11.516;2023-02-15T05:43:37;30.20;;;11.90;;
68377;SDS011;55322;48.146;11.516;2023-02-15T05:46:04;36.65;;;12.73;;
68377;SDS011;55322;48.146;11.516;2023-02-15T05:48:30;39.75;;;13.23;;
68377;SDS011;55322;48.146;11.516;2023-02-15T05:50:56;29.27;;;12.68;;
68377;SDS011;55322;48.146;11.516;2023-02-15T05:53:33;112.25;;;14.70;;
68377;SDS011;55322;48.146;11.516;2023-02-15T05:56:00;82.53;;;14.75;;
68377;SDS011;55322;48.146;11.516;2023-02-15T05:58:31;27.08;;;12.70;;
68377;SDS011;55322;48.146;11.516;2023-02-15T06:00:57;43.55;;;13.23;;
68377;SDS011;55322;48.146;11.516;2023-02-15T06:03:23;27.00;;;12.67;;
68377;SDS011;55322;48.146;11.516;2023-02-15T06:05:50;31.33;;;12.95;;
68377;SDS011;55322;48.146;11.516;2023-02-15T06:08:17;47.60;;;13.67;;
68377;SDS011;55322;48.146;11.516;2023-02-15T06:10:42;41.58;;;13.88;;
68377;SDS011;55322;48.146;11.516;2023-02-15T06:13:08;42.77;;;13.60;;
68377;SDS011;55322;48.146;11.516;2023-02-15T06:15:33;45.13;;;14.23;;
68377;SDS011;55322;48.146;11.516;2023-02-15T06:17:59;34.85;;;13.82;;
68377;SDS011;55322;48.146;11.516;2023-02-15T06:20:24;68.28;;;14.77;;
68377;SDS011;55322;48.146;11.516;2023-02-15T06:22:50;43.97;;;13.93;;
68377;SDS011;55322;48.146;11.516;2023-02-15T06:25:15;50.97;;;12.73;;
68377;SDS011;55322;48.146;11.516;2023-02-15T06:27:41;38.33;;;14.52;;
68377;SDS011;55322;48.146;11.516;2023-02-15T06:30:07;82.68;;;15.85;;
68377;SDS011;55322;48.146;11.516;2023-02-15T06:32:34;54.33;;;15.48;;
68377;SDS011;55322;48.146;11.516;2023-02-15T06:34:59;100.15;;;16.77;;
68377;SDS011;55322;48.146;11.516;2023-02-15T06:37:25;48.43;;;15.27;;
68377;SDS011;55322;48.146;11.516;2023-02-15T06:39:50;29.73;;;14.03;;
68377;SDS011;55322;48.146;11.516;2023-02-15T06:42:15;50.07;;;15.33;;
68377;SDS011;55322;48.146;11.516;2023-02-15T06:44:42;55.92;;;16.05;;
68377;SDS011;55322;48.146;11.516;2023-02-15T06:47:08;85.70;;;16.20;;
68377;SDS011;55322;48.146;11.516;2023-02-15T06:49:33;28.10;;;14.17;;
68377;SDS011;55322;48.146;11.516;2023-02-15T06:51:58;47.90;;;16.23;;
68377;SDS011;55322;48.146;11.516;2023-02-15T06:54:24;116.43;;;16.07;;
68377;SDS011;55322;48.146;11.516;2023-02-15T06:56:49;75.97;;;16.30;;
68377;SDS011;55322;48.146;11.516;2023-02-15T06:59:14;95.13;;;16.65;;
68377;SDS011;55322;48.146;11.516;2023-02-15T07:01:40;74.13;;;16.10;;
68377;SDS011;55322;48.146;11.516;2023-02-15T07:04:05;85.30;;;16.40;;
68377;SDS011;55322;48.146;11.516;2023-02-15T07:06:31;48.20;;;15.77;;
68377;SDS011;55322;48.146;11.516;2023-02-15T07:08:58;104.47;;;17.05;;
68377;SDS011;55322;48.146;11.516;2023-02-15T07:11:24;59.23;;;15.00;;
68377;SDS011;55322;48.146;11.516;2023-02-15T07:14:08;49.83;;;16.15;;
68377;SDS011;55322;48.146;11.516;2023-02-15T07:16:33;56.93;;;15.80;;
68377;SDS011;55322;48.146;11.516;2023-02-15T07:18:59;49.93;;;16.63;;
68377;SDS011;55322;48.146;11.516;2023-02-15T07:21:24;39.30;;;16.30;;
68377;SDS011;55322;48.146;11.516;2023-02-15T07:23:49;38.73;;;16.83;;
68377;SDS011;55322;48.146;11.516;2023-02-15T07:26:14;44.20;;;16.00;;
68377;SDS011;55322;48.146;11.516;2023-02-15T07:28:40;44.80;;;15.40;;
68377;SDS011;55322;48.146;11.516;2023-02-15T07:31:05;33.00;;;14.65;;
68377;SDS011;55322;48.146;11.516;2023-02-15T07:33:31;33.28;;;15.25;;
68377;SDS011;55322;48.146;11.516;2023-02-15T07:35:58;37.92;;;15.38;;
68377;SDS011;55322;48.146;11.516;2023-02-15T07:38:26;33.70;;;15.43;;
68377;SDS011;55322;48.146;11.516;2023-02-15T07:40:59;32.70;;;16.67;;
68377;SDS011;55322;48.146;11.516;2023-02-15T07:43:25;29.30;;;15.55;;
68377;SDS011;55322;48.146;11.516;2023-02-15T07:45:51;31.02;;;16.00;;
68377;SDS011;55322;48.146;11.516;2023-02-15T07:48:17;32.67;;;16.57;;
68377;SDS011;55322;48.146;11.516;2023-02-15T07:50:42;37.27;;;15.27;;
68377;SDS011;55322;48.146;11.516;2023-02-15T07:53:08;30.03;;;15.43;;
68377;SDS011;55322;48.146;11.516;2023-02-15T07:55:33;32.47;;;15.02;;
68377;SDS011;55322;48.146;11.516;2023-02-15T07:57:58;26.97;;;14.40;;
68377;SDS011;55322;48.146;11.516;2023-02-15T08:00:24;29.90;;;15.10;;
68377;SDS011;55322;48.146;11.516;2023-02-15T08:02:58;25.60;;;13.97;;
68377;SDS011;55322;48.146;11.516;2023-02-15T08:05:40;24.77;;;13.13;;
68377;SDS011;55322;48.146;11.516;2023-02-15T08:08:07;25.40;;;14.10;;
68377;SDS011;55322;48.146;11.516;2023-02-15T08:10:33;26.42;;;13.63;;
68377;SDS011;55322;48.146;11.516;2023-02-15T08:13:26;26.20;;;14.07;;
68377;SDS011;55322;48.146;11.516;2023-02-15T08:15:51;28.43;;;12.90;;
68377;SDS011;55322;48.146;11.516;2023-02-15T08:18:17;25.20;;;13.10;;
68377;SDS011;55322;48.146;11.516;2023-02-15T08:20:42;25.17;;;13.43;;
68377;SDS011;55322;48.146;11.516;2023-02-15T08:23:07;25.53;;;14.60;;
68377;SDS011;55322;48.146;11.516;2023-02-15T08:25:33;28.33;;;14.20;;
68377;SDS011;55322;48.146;11.516;2023-02-15T08:27:58;24.60;;;12.70;;
68377;SDS011;55322;48.146;11.516;2023-02-15T08:30:23;27.50;;;14.80;;
68377;SDS011;55322;48.146;11.516;2023-02-15T08:32:49;25.33;;;13.43;;
68377;SDS011;55322;48.146;11.516;2023-02-15T08:35:14;26.13;;;14.68;;
68377;SDS011;55322;48.146;11.516;2023-02-15T08:37:39;26.93;;;14.47;;
68377;SDS011;55322;48.146;11.516;2023-02-15T08:40:05;24.70;;;13.43;;
68377;SDS011;55322;48.146;11.516;2023-02-15T08:42:34;23.50;;;13.52;;
68377;SDS011;55322;48.146;11.516;2023-02-15T08:44:59;29.05;;;13.13;;
68377;SDS011;55322;48.146;11.516;2023-02-15T08:47:25;24.75;;;13.65;;
68377;SDS011;55322;48.146;11.516;2023-02-15T08:49:50;26.17;;;13.90;;
68377;SDS011;55322;48.146;11.516;2023-02-15T08:52:16;21.93;;;12.90;;
68377;SDS011;55322;48.146;11.516;2023-02-15T08:54:41;26.85;;;12.80;;
68377;SDS011;55322;48.146;11.516;2023-02-15T08:57:07;26.90;;;12.23;;
68377;SDS011;55322;48.146;11.516;2023-02-15T08:59:32;22.67;;;12.73;;
68377;SDS011;55322;48.146;11.516;2023-02-15T09:01:57;19.30;;;10.93;;
68377;SDS011;55322;48.146;11.516;2023-02-15T09:04:23;22.70;;;10.43;;
68377;SDS011;55322;48.146;11.516;2023-02-15T09:06:48;19.90;;;10.50;;
68377;SDS011;55322;48.146;11.516;2023-02-15T09:09:15;18.48;;;9.85;;
68377;SDS011;55322;48.146;11.516;2023-02-15T09:11:42;19.35;;;10.07;;
68377;SDS011;55322;48.146;11.516;2023-02-15T09:14:13;18.98;;;9.68;;
68377;SDS011;55322;48.146;11.516;2023-02-15T09:16:41;16.85;;;9.15;;
68377;SDS011;55322;48.146;11.516;2023-02-15T09:19:13;16.67;;;9.10;;
68377;SDS011;55322;48.146;11.516;2023-02-15T09:21:39;16.75;;;9.77;;
68377;SDS011;55322;48.146;11.516;2023-02-15T09:24:05;16.63;;;9.43;;
68377;SDS011;55322;48.146;11.516;2023-02-15T09:26:34;16.70;;;9.60;;
68377;SDS011;55322;48.146;11.516;2023-02-15T09:29:02;23.60;;;9.93;;
68377;SDS011;55322;48.146;11.516;2023-02-15T09:31:29;18.40;;;11.15;;
68377;SDS011;55322;48.146;11.516;2023-02-15T09:33:57;17.95;;;10.35;;
68377;SDS011;55322;48.146;11.516;2023-02-15T09:36:31;18.90;;;10.77;;
68377;SDS011;55322;48.146;11.516;2023-02-15T09:39:04;19.50;;;10.93;;
68377;SDS011;55322;48.146;11.516;2023-02-15T09:41:45;24.00;;;10.20;;
68377;SDS011;55322;48.146;11.516;2023-02-15T09:44:45;19.95;;;10.07;;
68377;SDS011;55322;48.146;11.516;2023-02-15T10:07:04;17.60;;;9.43;;
68377;SDS011;55322;48.146;11.516;2023-02-15T10:15:24;18.75;;;9.82;;
68377;SDS011;55322;48.146;11.516;2023-02-15T10:26:46;18.40;;;10.02;;
68377;SDS011;55322;48.146;11.516;2023-02-15T10:29:17;20.80;;;10.18;;
68377;SDS011;55322;48.146;11.516;2023-02-15T10:32:05;18.67;;;10.10;;
68377;SDS011;55322;48.146;11.516;2023-02-15T10:34:51;20.70;;;10.87;;
68377;SDS011;55322;48.146;11.516;2023-02-15T10:45:43;23.75;;;12.68;;
68377;SDS011;55322;48.146;11.516;2023-02-15T10:51:19;20.50;;;12.02;;
68377;SDS011;55322;48.146;11.516;2023-02-15T10:54:03;23.42;;;13.05;;
68377;SDS011;55322;48.146;11.516;2023-02-15T11:01:51;23.00;;;12.13;;
68377;SDS011;55322;48.146;11.516;2023-02-15T11:07:03;25.23;;;12.00;;
68377;SDS011;55322;48.146;11.516;2023-02-15T11:09:40;26.77;;;14.48;;
68377;SDS011;55322;48.146;11.516;2023-02-15T11:12:11;19.45;;;12.65;;
68377;SDS011;55322;48.146;11.516;2023-02-15T11:17:28;22.92;;;13.73;;
68377;SDS011;55322;48.146;11.516;2023-02-15T11:22:37;23.30;;;12.93;;
68377;SDS011;55322;48.146;11.516;2023-02-15T11:25:06;21.80;;;13.02;;
68377;SDS011;55322;48.146;11.516;2023-02-15T11:27:44;27.17;;;13.00;;
68377;SDS011;55322;48.146;11.516;2023-02-15T11:30:13;25.30;;;13.80;;
68377;SDS011;55322;48.146;11.516;2023-02-15T11:32:40;25.70;;;13.02;;
68377;SDS011;55322;48.146;11.516;2023-02-15T11:37:37;24.00;;;14.83;;
68377;SDS011;55322;48.146;11.516;2023-02-15T11:40:12;24.63;;;14.52;;
68377;SDS011;55322;48.146;11.516;2023-02-15T11:42:44;27.27;;;13.68;;
68377;SDS011;55322;48.146;11.516;2023-02-15T11:47:42;25.63;;;13.52;;
68377;SDS011;55322;48.146;11.516;2023-02-15T11:50:14;23.17;;;13.53;;
68377;SDS011;55322;48.146;11.516;2023-02-15T11:52:41;25.80;;;13.73;;
68377;SDS011;55322;48.146;11.516;2023-02-15T11:55:11;25.02;;;15.13;;
68377;SDS011;55322;48.146;11.516;2023-02-15T11:57:39;23.83;;;14.00;;
68377;SDS011;55322;48.146;11.516;2023-02-15T12:00:15;20.48;;;14.00;;
68377;SDS011;55322;48.146;11.516;2023-02-15T12:02:53;27.60;;;15.13;;
68377;SDS011;55322;48.146;11.516;2023-02-15T12:05:22;26.05;;;14.63;;
68377;SDS011;55322;48.146;11.516;2023-02-15T12:07:52;24.75;;;15.18;;
68377;SDS011;55322;48.146;11.516;2023-02-15T12:10:24;26.07;;;14.73;;
68377;SDS011;55322;48.146;11.516;2023-02-15T12:13:08;24.25;;;14.65;;
68377;SDS011;55322;48.146;11.516;2023-02-15T12:15:38;24.70;;;14.55;;
68377;SDS011;55322;48.146;11.516;2023-02-15T12:20:59;23.83;;;14.05;;
68377;SDS011;55322;48.146;11.516;2023-02-15T12:23:28;28.87;;;15.07;;
68377;SDS011;55322;48.146;11.516;2023-02-15T12:25:54;24.02;;;14.48;;
68377;SDS011;55322;48.146;11.516;2023-02-15T12:30:59;25.90;;;14.20;;
68377;SDS011;55322;48.146;11.516;2023-02-15T12:36:01;27.83;;;13.83;;
68377;SDS011;55322;48.146;11.516;2023-02-15T12:38:34;31.90;;;15.02;;
68377;SDS011;55322;48.146;11.516;2023-02-15T12:41:03;25.30;;;14.97;;
68377;SDS011;55322;48.146;11.516;2023-02-15T12:43:46;25.55;;;15.68;;
68377;SDS011;55322;48.146;11.516;2023-02-15T12:46:21;26.87;;;15.17;;
68377;SDS011;55322;48.146;11.516;2023-02-15T12:49:05;27.90;;;15.07;;
68377;SDS011;55322;48.146;11.516;2023-02-15T12:51:45;31.40;;;14.75;;
68377;SDS011;55322;48.146;11.516;2023-02-15T12:54:32;24.40;;;14.82;;
68377;SDS011;55322;48.146;11.516;2023-02-15T12:57:13;28.60;;;14.37;;
68377;SDS011;55322;48.146;11.516;2023-02-15T12:59:48;28.40;;;14.40;;
68377;SDS011;55322;48.146;11.516;2023-02-15T13:02:18;27.48;;;15.35;;
68377;SDS011;55322;48.146;11.516;2023-02-15T13:04:47;24.77;;;14.23;;
68377;SDS011;55322;48.146;11.516;2023-02-15T13:07:14;24.10;;;14.15;;
68377;SDS011;55322;48.146;11.516;2023-02-15T13:09:39;25.03;;;14.73;;
68377;SDS011;55322;48.146;11.516;2023-02-15T13:12:16;25.97;;;14.23;;
68377;SDS011;55322;48.146;11.516;2023-02-15T13:14:45;23.55;;;14.38;;
68377;SDS011;55322;48.146;11.516;2023-02-15T13:17:15;25.92;;;13.80;;
68377;SDS011;55322;48.146;11.516;2023-02-15T13:19:46;29.88;;;14.50;;
68377;SDS011;55322;48.146;11.516;2023-02-15T13:22:16;23.53;;;13.63;;
68377;SDS011;55322;48.146;11.516;2023-02-15T13:27:22;26.33;;;13.93;;
68377;SDS011;55322;48.146;11.516;2023-02-15T13:29:55;21.73;;;13.13;;
68377;SDS011;55322;48.146;11.516;2023-02-15T13:32:28;26.42;;;14.00;;
68377;SDS011;55322;48.146;11.516;2023-02-15T13:34:59;25.40;;;13.97;;
68377;SDS011;55322;48.146;11.516;2023-02-15T13:42:56;31.88;;;13.38;;
68377;SDS011;55322;48.146;11.516;2023-02-15T13:56:02;25.98;;;13.50;;
68377;SDS011;55322;48.146;11.516;2023-02-15T13:59:15;22.92;;;13.18;;
68377;SDS011;55322;48.146;11.516;2023-02-15T14:04:31;26.58;;;13.48;;
68377;SDS011;55322;48.146;11.516;2023-02-15T14:21:10;25.70;;;12.60;;
68377;SDS011;55322;48.146;11.516;2023-02-15T14:24:04;24.65;;;13.60;;
68377;SDS011;55322;48.146;11.516;2023-02-15T14:26:42;25.20;;;13.60;;
68377;SDS011;55322;48.146;11.516;2023-02-15T14:29:59;26.58;;;12.00;;
68377;SDS011;55322;48.146;11.516;2023-02-15T14:32:29;23.58;;;12.63;;
68377;SDS011;55322;48.146;11.516;2023-02-15T14:35:02;26.45;;;12.85;;
68377;SDS011;55322;48.146;11.516;2023-02-15T14:37:31;23.58;;;13.30;;
68377;SDS011;55322;48.146;11.516;2023-02-15T14:43:11;23.10;;;12.73;;
68377;SDS011;55322;48.146;11.516;2023-02-15T14:45:49;22.77;;;11.98;;
68377;SDS011;55322;48.146;11.516;2023-02-15T14:48:20;19.02;;;11.15;;
68377;SDS011;55322;48.146;11.516;2023-02-15T14:50:51;21.83;;;11.85;;
68377;SDS011;55322;48.146;11.516;2023-02-15T14:58:38;23.23;;;11.63;;
68377;SDS011;55322;48.146;11.516;2023-02-15T15:01:25;20.55;;;11.27;;
68377;SDS011;55322;48.146;11.516;2023-02-15T15:03:53;21.45;;;12.10;;
68377;SDS011;55322;48.146;11.516;2023-02-15T15:06:23;19.90;;;11.23;;
68377;SDS011;55322;48.146;11.516;2023-02-15T15:08:55;22.73;;;11.88;;
68377;SDS011;55322;48.146;11.516;2023-02-15T15:16:31;25.02;;;12.13;;
68377;SDS011;55322;48.146;11.516;2023-02-15T15:19:12;22.38;;;12.10;;
68377;SDS011;55322;48.146;11.516;2023-02-15T15:22:06;21.90;;;12.38;;
68377;SDS011;55322;48.146;11.516;2023-02-15T15:30:48;22.00;;;11.90;;
68377;SDS011;55322;48.146;11.516;2023-02-15T15:49:15;24.73;;;12.55;;
68377;SDS011;55322;48.146;11.516;2023-02-15T15:51:44;25.25;;;12.32;;
68377;SDS011;55322;48.146;11.516;2023-02-15T15:54:20;24.17;;;12.27;;
68377;SDS011;55322;48.146;11.516;2023-02-15T15:56:52;22.53;;;11.73;;
68377;SDS011;55322;48.146;11.516;2023-02-15T15:59:22;22.33;;;11.85;;
68377;SDS011;55322;48.146;11.516;2023-02-15T16:01:50;21.35;;;12.48;;
68377;SDS011;55322;48.146;11.516;2023-02-15T16:04:26;24.93;;;13.13;;
68377;SDS011;55322;48.146;11.516;2023-02-15T16:06:55;21.77;;;12.85;;
68377;SDS011;55322;48.146;11.516;2023-02-15T16:09:37;22.90;;;12.60;;
68377;SDS011;55322;48.146;11.516;2023-02-15T16:12:03;23.60;;;13.20;;
68377;SDS011;55322;48.146;11.516;2023-02-15T16:14:30;26.73;;;13.35;;
68377;SDS011;55322;48.146;11.516;2023-02-15T16:17:00;27.52;;;12.77;;
68377;SDS011;55322;48.146;11.516;2023-02-15T16:19:29;23.55;;;13.55;;
68377;SDS011;55322;48.146;11.516;2023-02-15T16:21:57;23.17;;;12.83;;
68377;SDS011;55322;48.146;11.516;2023-02-15T16:29:52;27.85;;;13.80;;
68377;SDS011;55322;48.146;11.516;2023-02-15T16:32:19;22.83;;;13.00;;
68377;SDS011;55322;48.146;11.516;2023-02-15T16:34:54;29.63;;;15.05;;
68377;SDS011;55322;48.146;11.516;2023-02-15T16:37:22;25.70;;;14.20;;
68377;SDS011;55322;48.146;11.516;2023-02-15T16:39:51;27.05;;;14.80;;
68377;SDS011;55322;48.146;11.516;2023-02-15T16:42:17;30.27;;;16.05;;
68377;SDS011;55322;48.146;11.516;2023-02-15T16:44:44;29.50;;;15.50;;
68377;SDS011;55322;48.146;11.516;2023-02-15T16:50:10;30.48;;;14.63;;
68377;SDS011;55322;48.146;11.516;2023-02-15T16:52:47;30.98;;;15.75;;
68377;SDS011;55322;48.146;11.516;2023-02-15T16:55:20;30.70;;;15.40;;
68377;SDS011;55322;48.146;11.516;2023-02-15T16:57:47;34.17;;;16.35;;
68377;SDS011;55322;48.146;11.516;2023-02-15T17:00:24;38.33;;;16.85;;
68377;SDS011;55322;48.146;11.516;2023-02-15T17:03:00;32.00;;;16.67;;
68377;SDS011;55322;48.146;11.516;2023-02-15T17:05:32;30.63;;;16.90;;
68377;SDS011;55322;48.146;11.516;2023-02-15T17:10:41;32.97;;;16.63;;
68377;SDS011;55322;48.146;11.516;2023-02-15T17:13:16;31.75;;;16.83;;
68377;SDS011;55322;48.146;11.516;2023-02-15T17:15:43;36.08;;;16.88;;
68377;SDS011;55322;48.146;11.516;2023-02-15T17:18:29;30.37;;;15.83;;
68377;SDS011;55322;48.146;11.516;2023-02-15T17:20:58;31.70;;;17.73;;
68377;SDS011;55322;48.146;11.516;2023-02-15T17:23:37;33.17;;;17.23;;
68377;SDS011;55322;48.146;11.516;2023-02-15T17:26:23;32.30;;;17.27;;
68377;SDS011;55322;48.146;11.516;2023-02-15T17:28:55;32.58;;;17.50;;